Waitsburg, WA (99361)

12:23 AM PST on December 06, 2016 (GMT -0800)
M James MW | | Change Station
Active Advisory: Winter Weather Advisory Active Notice: Local Storm Report

Elev 1656 ft 46.21 °N, 118.18 °W | Updated 1 minute ago

Light Snow
Light Snow Mist
30.3 °F
Feels Like 30 °F
N
0.0
Wind Variable Wind from SE
Gusts 0.0 mph

Today
High -- | Low -- °F
--% Chance of Precip.
Yesterday
High -- | Low -- °F
Precip. -- in
Pressure 29.93 in
Visibility 1.2 miles
Clouds Few 300 ft
Mostly Cloudy 900 ft
Overcast 2400 ft
Windchill 30 °F
Dew Point 29 °F
Humidity 95%
Rainfall 0.00 in
Snow Depth Not available.
7:21 AM 4:06 PM
Waxing Crescent, 39% visible
SPECI KALW 060807Z AUTO 17007KT 1 1/4SM -SN BR FEW003 BKN009 OVC024 00/M01 A2993 RMK AO2 P0000 T00001011
Pressure 29.93 in
Visibility 1.2 miles
Clouds Few 300 ft
Mostly Cloudy 900 ft
Overcast 2400 ft
Windchill 30 °F
Dew Point 29 °F
Humidity 95%
Rainfall 0.00 in
Snow Depth Not available.
7:21 AM 4:06 PM
Waxing Crescent, 39% visible
SPECI KALW 060807Z AUTO 17007KT 1 1/4SM -SN BR FEW003 BKN009 OVC024 00/M01 A2993 RMK AO2 P0000 T00001011

10-Day Weather Forecast

Almanac

Astronomy

Dec. 06, 2016 Rise Set
Actual Time
Civil Twilight
Nautical Twilight
Astronomical Twilight
Moon
Length of Visible Light
Length of Day
Tomorrow will be .
, % of the Moon is Illuminated

Today's Extremes

State Highs State Lows

Community

WunderPhotos

Upload Photos

1,955,935 photos uploaded!

WunderBlog® & News

Nearby

Air Quality

  Air Quality AQ Index Pollutant
Not available.

Snow Depth

Station Depth Elevation

Earthquake Activity

City Distance Mag. Time & Date
Minimum magnitude displayed is 2.5.

Coastal Water Temperatures

Place Temperature

Stations

Nearby Weather Stations

Station Location Temp. Windchill Dew Point Humidity Wind Precip. Elev Updated Type
                   

Watches & Warnings

Winter Weather Advisory
Issued: 8:17 PM PST Dec. 5, 2016 – National Weather Service

... Winter Weather Advisory remains in effect until 10 am PST
Tuesday...

* locations... Pendleton... Pilot Rock... Boardman... Hermiston...
Ione... Connell... Prosser... Tri-Cities... Dayton... Waitsburg...
Walla Walla.

* Snow accumulations... 1 to 2 inches.

* Timing... areas of snow showers will begin to develop this
evening then increase overnight. Snow showers will become
scattered Tuesday afternoon.

* Impacts... area roadways will become snow covered and slick.
Heavier snow showers could briefly reduce visibility.

* Winds... southwest 5 to 10 mph.

* Snow level... lowering to the basin floor overnight.

* Web page: for a detailed view of the hazard area visit
http://www.Wrh.NOAA.Gov/map/?Wfo=pdt.

Precautionary/preparedness actions...

A Winter Weather Advisory for snow means that periods of snow
will cause primarily travel difficulties. Be prepared for snow
covered roads and limited visibilities... and use caution while
driving.